sensor_id;sensor_type;location;lat;lon;timestamp;P1;durP1;ratioP1;P2;durP2;ratioP2
55362;SDS011;41244;49.242;9.060;2023-03-20T00:01:15;13.48;;;10.80;;
55362;SDS011;41244;49.242;9.060;2023-03-20T00:03:59;13.98;;;11.63;;
55362;SDS011;41244;49.242;9.060;2023-03-20T00:06:26;9.75;;;8.85;;
55362;SDS011;41244;49.242;9.060;2023-03-20T00:08:53;10.13;;;7.47;;
55362;SDS011;41244;49.242;9.060;2023-03-20T00:14:00;8.43;;;7.40;;
55362;SDS011;41244;49.242;9.060;2023-03-20T00:16:34;9.85;;;8.43;;
55362;SDS011;41244;49.242;9.060;2023-03-20T00:19:02;8.57;;;7.68;;
55362;SDS011;41244;49.242;9.060;2023-03-20T00:21:28;7.88;;;7.18;;
55362;SDS011;41244;49.242;9.060;2023-03-20T00:23:55;8.18;;;7.38;;
55362;SDS011;41244;49.242;9.060;2023-03-20T00:26:22;8.73;;;6.53;;
55362;SDS011;41244;49.242;9.060;2023-03-20T00:28:55;8.13;;;7.32;;
55362;SDS011;41244;49.242;9.060;2023-03-20T00:31:25;11.23;;;7.45;;
55362;SDS011;41244;49.242;9.060;2023-03-20T00:33:57;7.05;;;6.40;;
55362;SDS011;41244;49.242;9.060;2023-03-20T00:36:25;6.97;;;6.18;;
55362;SDS011;41244;49.242;9.060;2023-03-20T00:38:52;7.28;;;6.57;;
55362;SDS011;41244;49.242;9.060;2023-03-20T00:41:20;6.60;;;6.00;;
55362;SDS011;41244;49.242;9.060;2023-03-20T00:43:52;6.18;;;5.65;;
55362;SDS011;41244;49.242;9.060;2023-03-20T00:48:50;6.35;;;5.75;;
55362;SDS011;41244;49.242;9.060;2023-03-20T00:51:16;5.70;;;5.13;;
55362;SDS011;41244;49.242;9.060;2023-03-20T00:53:43;6.15;;;5.60;;
55362;SDS011;41244;49.242;9.060;2023-03-20T00:56:25;7.55;;;5.90;;
55362;SDS011;41244;49.242;9.060;2023-03-20T00:58:55;6.20;;;4.95;;
55362;SDS011;41244;49.242;9.060;2023-03-20T01:01:21;5.20;;;4.70;;
55362;SDS011;41244;49.242;9.060;2023-03-20T01:03:47;4.97;;;4.47;;
55362;SDS011;41244;49.242;9.060;2023-03-20T01:06:13;5.50;;;4.63;;
55362;SDS011;41244;49.242;9.060;2023-03-20T01:08:39;6.05;;;4.57;;
55362;SDS011;41244;49.242;9.060;2023-03-20T01:11:05;4.93;;;4.45;;
55362;SDS011;41244;49.242;9.060;2023-03-20T01:13:33;5.50;;;4.30;;
55362;SDS011;41244;49.242;9.060;2023-03-20T01:15:59;6.00;;;4.25;;
55362;SDS011;41244;49.242;9.060;2023-03-20T01:18:25;4.60;;;3.90;;
55362;SDS011;41244;49.242;9.060;2023-03-20T01:20:51;5.18;;;3.75;;
55362;SDS011;41244;49.242;9.060;2023-03-20T01:23:18;5.25;;;4.03;;
55362;SDS011;41244;49.242;9.060;2023-03-20T01:25:44;3.88;;;3.50;;
55362;SDS011;41244;49.242;9.060;2023-03-20T01:28:12;4.03;;;3.63;;
55362;SDS011;41244;49.242;9.060;2023-03-20T01:30:44;4.20;;;3.50;;
55362;SDS011;41244;49.242;9.060;2023-03-20T01:33:11;3.80;;;3.47;;
55362;SDS011;41244;49.242;9.060;2023-03-20T01:35:48;4.25;;;3.60;;
55362;SDS011;41244;49.242;9.060;2023-03-20T01:38:19;3.70;;;3.30;;
55362;SDS011;41244;49.242;9.060;2023-03-20T01:40:50;4.30;;;3.20;;
55362;SDS011;41244;49.242;9.060;2023-03-20T01:43:42;4.53;;;3.67;;
55362;SDS011;41244;49.242;9.060;2023-03-20T01:51:32;3.78;;;3.25;;
55362;SDS011;41244;49.242;9.060;2023-03-20T01:54:19;3.58;;;3.20;;
55362;SDS011;41244;49.242;9.060;2023-03-20T01:56:56;5.22;;;3.40;;
55362;SDS011;41244;49.242;9.060;2023-03-20T01:59:30;3.90;;;3.13;;
55362;SDS011;41244;49.242;9.060;2023-03-20T02:02:13;4.93;;;3.80;;
55362;SDS011;41244;49.242;9.060;2023-03-20T02:04:44;3.60;;;3.30;;
55362;SDS011;41244;49.242;9.060;2023-03-20T02:07:14;3.38;;;3.08;;
55362;SDS011;41244;49.242;9.060;2023-03-20T02:09:41;4.15;;;3.55;;
55362;SDS011;41244;49.242;9.060;2023-03-20T02:12:07;5.25;;;3.45;;
55362;SDS011;41244;49.242;9.060;2023-03-20T02:14:33;4.53;;;3.40;;
55362;SDS011;41244;49.242;9.060;2023-03-20T02:17:01;3.97;;;3.60;;
55362;SDS011;41244;49.242;9.060;2023-03-20T02:22:23;3.88;;;3.47;;
55362;SDS011;41244;49.242;9.060;2023-03-20T02:28:18;4.28;;;3.78;;
55362;SDS011;41244;49.242;9.060;2023-03-20T02:37:14;5.05;;;3.92;;
55362;SDS011;41244;49.242;9.060;2023-03-20T02:46:08;4.22;;;3.83;;
55362;SDS011;41244;49.242;9.060;2023-03-20T02:52:18;5.68;;;4.43;;
55362;SDS011;41244;49.242;9.060;2023-03-20T02:55:43;5.55;;;4.10;;
55362;SDS011;41244;49.242;9.060;2023-03-20T02:58:38;6.57;;;4.45;;
55362;SDS011;41244;49.242;9.060;2023-03-20T03:01:25;4.72;;;4.32;;
55362;SDS011;41244;49.242;9.060;2023-03-20T03:04:16;4.75;;;3.90;;
55362;SDS011;41244;49.242;9.060;2023-03-20T03:06:50;4.88;;;4.38;;
55362;SDS011;41244;49.242;9.060;2023-03-20T03:11:49;6.43;;;4.63;;
55362;SDS011;41244;49.242;9.060;2023-03-20T03:14:33;5.32;;;4.80;;
55362;SDS011;41244;49.242;9.060;2023-03-20T03:17:06;6.25;;;4.90;;
55362;SDS011;41244;49.242;9.060;2023-03-20T03:19:33;4.65;;;4.25;;
55362;SDS011;41244;49.242;9.060;2023-03-20T03:22:01;5.82;;;5.22;;
55362;SDS011;41244;49.242;9.060;2023-03-20T03:24:29;5.60;;;5.03;;
55362;SDS011;41244;49.242;9.060;2023-03-20T03:27:05;5.82;;;5.20;;
55362;SDS011;41244;49.242;9.060;2023-03-20T03:29:41;6.88;;;5.28;;
55362;SDS011;41244;49.242;9.060;2023-03-20T03:32:18;6.97;;;5.18;;
55362;SDS011;41244;49.242;9.060;2023-03-20T03:34:57;6.25;;;5.60;;
55362;SDS011;41244;49.242;9.060;2023-03-20T03:43:24;6.18;;;5.57;;
55362;SDS011;41244;49.242;9.060;2023-03-20T03:45:58;6.50;;;5.82;;
55362;SDS011;41244;49.242;9.060;2023-03-20T03:48:30;6.20;;;5.43;;
55362;SDS011;41244;49.242;9.060;2023-03-20T03:51:02;7.10;;;6.00;;
55362;SDS011;41244;49.242;9.060;2023-03-20T03:53:36;6.47;;;5.72;;
55362;SDS011;41244;49.242;9.060;2023-03-20T03:56:07;5.50;;;5.00;;
55362;SDS011;41244;49.242;9.060;2023-03-20T03:58:40;99.13;;;38.00;;
55362;SDS011;41244;49.242;9.060;2023-03-20T04:01:16;173.50;;;68.57;;
55362;SDS011;41244;49.242;9.060;2023-03-20T04:03:45;135.98;;;53.40;;
55362;SDS011;41244;49.242;9.060;2023-03-20T04:06:16;187.52;;;71.75;;
55362;SDS011;41244;49.242;9.060;2023-03-20T04:08:42;35.78;;;16.80;;
55362;SDS011;41244;49.242;9.060;2023-03-20T04:11:15;17.40;;;9.80;;
55362;SDS011;41244;49.242;9.060;2023-03-20T04:13:44;16.27;;;9.55;;
55362;SDS011;41244;49.242;9.060;2023-03-20T04:16:13;22.80;;;12.05;;
55362;SDS011;41244;49.242;9.060;2023-03-20T04:18:40;68.72;;;39.60;;
55362;SDS011;41244;49.242;9.060;2023-03-20T04:21:06;33.08;;;21.33;;
55362;SDS011;41244;49.242;9.060;2023-03-20T04:23:32;14.57;;;10.18;;
55362;SDS011;41244;49.242;9.060;2023-03-20T04:25:58;9.23;;;7.55;;
55362;SDS011;41244;49.242;9.060;2023-03-20T04:28:25;7.38;;;6.68;;
55362;SDS011;41244;49.242;9.060;2023-03-20T04:30:54;7.80;;;7.00;;
55362;SDS011;41244;49.242;9.060;2023-03-20T04:33:22;7.28;;;6.57;;
55362;SDS011;41244;49.242;9.060;2023-03-20T04:35:49;9.57;;;7.63;;
55362;SDS011;41244;49.242;9.060;2023-03-20T04:38:15;10.20;;;8.05;;
55362;SDS011;41244;49.242;9.060;2023-03-20T04:40:43;9.07;;;8.10;;
55362;SDS011;41244;49.242;9.060;2023-03-20T04:43:09;10.18;;;8.82;;
55362;SDS011;41244;49.242;9.060;2023-03-20T04:45:35;17.42;;;11.15;;
55362;SDS011;41244;49.242;9.060;2023-03-20T04:48:00;13.00;;;11.35;;
55362;SDS011;41244;49.242;9.060;2023-03-20T04:50:26;14.77;;;13.15;;
55362;SDS011;41244;49.242;9.060;2023-03-20T04:52:52;15.80;;;13.30;;
55362;SDS011;41244;49.242;9.060;2023-03-20T04:55:18;13.55;;;11.50;;
55362;SDS011;41244;49.242;9.060;2023-03-20T04:57:44;15.23;;;12.27;;
55362;SDS011;41244;49.242;9.060;2023-03-20T05:00:10;15.18;;;12.75;;
55362;SDS011;41244;49.242;9.060;2023-03-20T05:02:36;13.95;;;11.93;;
55362;SDS011;41244;49.242;9.060;2023-03-20T05:05:02;12.50;;;11.10;;
55362;SDS011;41244;49.242;9.060;2023-03-20T05:07:28;15.73;;;13.02;;
55362;SDS011;41244;49.242;9.060;2023-03-20T05:09:54;14.30;;;12.32;;
55362;SDS011;41244;49.242;9.060;2023-03-20T05:12:20;13.65;;;12.35;;
55362;SDS011;41244;49.242;9.060;2023-03-20T05:14:46;14.73;;;11.90;;
55362;SDS011;41244;49.242;9.060;2023-03-20T05:17:12;14.98;;;13.50;;
55362;SDS011;41244;49.242;9.060;2023-03-20T05:19:38;14.50;;;13.07;;
55362;SDS011;41244;49.242;9.060;2023-03-20T05:22:04;15.07;;;13.48;;
55362;SDS011;41244;49.242;9.060;2023-03-20T05:24:30;16.33;;;13.45;;
55362;SDS011;41244;49.242;9.060;2023-03-20T05:26:56;16.15;;;13.18;;
55362;SDS011;41244;49.242;9.060;2023-03-20T05:29:21;14.35;;;12.85;;
55362;SDS011;41244;49.242;9.060;2023-03-20T05:31:47;15.18;;;13.57;;
55362;SDS011;41244;49.242;9.060;2023-03-20T05:34:13;15.18;;;13.68;;
55362;SDS011;41244;49.242;9.060;2023-03-20T05:36:39;15.85;;;13.23;;
55362;SDS011;41244;49.242;9.060;2023-03-20T05:39:05;14.57;;;13.15;;
55362;SDS011;41244;49.242;9.060;2023-03-20T05:41:31;17.33;;;13.90;;
55362;SDS011;41244;49.242;9.060;2023-03-20T05:43:56;15.35;;;13.77;;
55362;SDS011;41244;49.242;9.060;2023-03-20T05:46:22;15.48;;;13.98;;
55362;SDS011;41244;49.242;9.060;2023-03-20T05:48:48;16.40;;;14.70;;
55362;SDS011;41244;49.242;9.060;2023-03-20T05:51:14;16.45;;;13.90;;
55362;SDS011;41244;49.242;9.060;2023-03-20T05:53:40;17.65;;;14.50;;
55362;SDS011;41244;49.242;9.060;2023-03-20T05:56:05;17.15;;;14.68;;
55362;SDS011;41244;49.242;9.060;2023-03-20T05:58:32;16.05;;;14.45;;
55362;SDS011;41244;49.242;9.060;2023-03-20T06:00:59;15.63;;;14.02;;
55362;SDS011;41244;49.242;9.060;2023-03-20T06:03:24;15.80;;;14.20;;
55362;SDS011;41244;49.242;9.060;2023-03-20T06:05:50;16.75;;;14.95;;
55362;SDS011;41244;49.242;9.060;2023-03-20T06:08:16;18.02;;;15.00;;
55362;SDS011;41244;49.242;9.060;2023-03-20T06:10:42;15.98;;;14.38;;
55362;SDS011;41244;49.242;9.060;2023-03-20T06:13:07;15.25;;;13.63;;
55362;SDS011;41244;49.242;9.060;2023-03-20T06:15:33;17.85;;;14.13;;
55362;SDS011;41244;49.242;9.060;2023-03-20T06:17:59;15.52;;;13.75;;
55362;SDS011;41244;49.242;9.060;2023-03-20T06:20:25;14.73;;;13.13;;
55362;SDS011;41244;49.242;9.060;2023-03-20T06:22:51;14.27;;;12.82;;
55362;SDS011;41244;49.242;9.060;2023-03-20T06:25:17;15.98;;;12.85;;
55362;SDS011;41244;49.242;9.060;2023-03-20T06:27:44;13.93;;;12.52;;
55362;SDS011;41244;49.242;9.060;2023-03-20T06:30:12;13.38;;;11.98;;
55362;SDS011;41244;49.242;9.060;2023-03-20T06:32:38;18.33;;;16.25;;
55362;SDS011;41244;49.242;9.060;2023-03-20T06:35:04;13.70;;;12.30;;
55362;SDS011;41244;49.242;9.060;2023-03-20T06:37:31;13.45;;;11.88;;
55362;SDS011;41244;49.242;9.060;2023-03-20T06:39:57;13.57;;;11.20;;
55362;SDS011;41244;49.242;9.060;2023-03-20T06:42:23;13.32;;;11.90;;
55362;SDS011;41244;49.242;9.060;2023-03-20T06:44:49;15.38;;;12.63;;
55362;SDS011;41244;49.242;9.060;2023-03-20T06:47:15;14.48;;;12.95;;
55362;SDS011;41244;49.242;9.060;2023-03-20T06:49:41;18.85;;;12.63;;
55362;SDS011;41244;49.242;9.060;2023-03-20T06:52:09;14.80;;;12.40;;
55362;SDS011;41244;49.242;9.060;2023-03-20T06:54:43;22.40;;;12.60;;
55362;SDS011;41244;49.242;9.060;2023-03-20T06:57:09;15.65;;;12.27;;
55362;SDS011;41244;49.242;9.060;2023-03-20T06:59:35;16.15;;;12.35;;
55362;SDS011;41244;49.242;9.060;2023-03-20T07:02:01;15.57;;;11.85;;
55362;SDS011;41244;49.242;9.060;2023-03-20T07:04:27;16.13;;;12.70;;
55362;SDS011;41244;49.242;9.060;2023-03-20T07:06:53;13.95;;;12.27;;
55362;SDS011;41244;49.242;9.060;2023-03-20T07:09:19;14.32;;;12.02;;
55362;SDS011;41244;49.242;9.060;2023-03-20T07:11:46;13.88;;;12.48;;
55362;SDS011;41244;49.242;9.060;2023-03-20T07:14:12;13.85;;;11.98;;
55362;SDS011;41244;49.242;9.060;2023-03-20T07:16:38;15.02;;;13.43;;
55362;SDS011;41244;49.242;9.060;2023-03-20T07:19:04;15.23;;;13.48;;
55362;SDS011;41244;49.242;9.060;2023-03-20T07:21:30;14.07;;;12.20;;
55362;SDS011;41244;49.242;9.060;2023-03-20T07:23:57;13.98;;;12.25;;
55362;SDS011;41244;49.242;9.060;2023-03-20T07:26:22;14.43;;;11.70;;
55362;SDS011;41244;49.242;9.060;2023-03-20T07:28:48;14.57;;;12.48;;
55362;SDS011;41244;49.242;9.060;2023-03-20T07:31:18;15.15;;;13.48;;
55362;SDS011;41244;49.242;9.060;2023-03-20T07:33:50;13.77;;;11.38;;
55362;SDS011;41244;49.242;9.060;2023-03-20T07:36:16;13.43;;;12.02;;
55362;SDS011;41244;49.242;9.060;2023-03-20T07:38:42;15.18;;;12.02;;
55362;SDS011;41244;49.242;9.060;2023-03-20T07:41:08;14.23;;;11.68;;
55362;SDS011;41244;49.242;9.060;2023-03-20T07:43:34;14.05;;;11.65;;
55362;SDS011;41244;49.242;9.060;2023-03-20T07:46:01;17.55;;;11.38;;
55362;SDS011;41244;49.242;9.060;2023-03-20T07:48:31;15.98;;;11.88;;
55362;SDS011;41244;49.242;9.060;2023-03-20T07:50:56;13.95;;;11.77;;
55362;SDS011;41244;49.242;9.060;2023-03-20T07:53:22;12.85;;;11.48;;
55362;SDS011;41244;49.242;9.060;2023-03-20T07:55:48;13.73;;;11.73;;
55362;SDS011;41244;49.242;9.060;2023-03-20T07:58:14;14.77;;;12.02;;
55362;SDS011;41244;49.242;9.060;2023-03-20T08:00:40;17.17;;;13.55;;
55362;SDS011;41244;49.242;9.060;2023-03-20T08:03:06;15.73;;;12.63;;
55362;SDS011;41244;49.242;9.060;2023-03-20T08:05:32;15.48;;;13.48;;
55362;SDS011;41244;49.242;9.060;2023-03-20T08:07:58;15.48;;;13.65;;
55362;SDS011;41244;49.242;9.060;2023-03-20T08:10:23;20.77;;;13.63;;
55362;SDS011;41244;49.242;9.060;2023-03-20T08:12:49;20.23;;;14.05;;
55362;SDS011;41244;49.242;9.060;2023-03-20T08:15:15;18.15;;;15.35;;
55362;SDS011;41244;49.242;9.060;2023-03-20T08:17:44;17.33;;;14.80;;
55362;SDS011;41244;49.242;9.060;2023-03-20T08:20:10;19.77;;;16.35;;
55362;SDS011;41244;49.242;9.060;2023-03-20T08:22:38;18.85;;;15.82;;
55362;SDS011;41244;49.242;9.060;2023-03-20T08:25:04;19.60;;;14.93;;
55362;SDS011;41244;49.242;9.060;2023-03-20T08:27:32;16.75;;;14.60;;
55362;SDS011;41244;49.242;9.060;2023-03-20T08:29:59;18.08;;;14.98;;
55362;SDS011;41244;49.242;9.060;2023-03-20T08:32:25;18.90;;;16.02;;
55362;SDS011;41244;49.242;9.060;2023-03-20T08:34:51;20.50;;;16.05;;
55362;SDS011;41244;49.242;9.060;2023-03-20T08:37:19;18.20;;;16.15;;
55362;SDS011;41244;49.242;9.060;2023-03-20T08:39:45;21.52;;;17.15;;
55362;SDS011;41244;49.242;9.060;2023-03-20T08:42:11;20.48;;;17.02;;
55362;SDS011;41244;49.242;9.060;2023-03-20T08:44:38;22.77;;;17.63;;
55362;SDS011;41244;49.242;9.060;2023-03-20T08:47:04;22.88;;;16.83;;
55362;SDS011;41244;49.242;9.060;2023-03-20T08:49:31;23.17;;;16.92;;
55362;SDS011;41244;49.242;9.060;2023-03-20T08:52:00;23.17;;;17.33;;
55362;SDS011;41244;49.242;9.060;2023-03-20T08:54:26;23.65;;;17.48;;
55362;SDS011;41244;49.242;9.060;2023-03-20T08:56:52;20.38;;;17.10;;
55362;SDS011;41244;49.242;9.060;2023-03-20T08:59:18;23.60;;;17.52;;
55362;SDS011;41244;49.242;9.060;2023-03-20T09:01:44;21.48;;;17.88;;
55362;SDS011;41244;49.242;9.060;2023-03-20T09:04:11;30.10;;;18.98;;
55362;SDS011;41244;49.242;9.060;2023-03-20T09:06:37;24.60;;;18.48;;
55362;SDS011;41244;49.242;9.060;2023-03-20T09:09:03;21.98;;;18.63;;
55362;SDS011;41244;49.242;9.060;2023-03-20T09:11:30;23.35;;;18.23;;
55362;SDS011;41244;49.242;9.060;2023-03-20T09:13:56;28.80;;;20.50;;
55362;SDS011;41244;49.242;9.060;2023-03-20T09:16:23;25.40;;;19.65;;
55362;SDS011;41244;49.242;9.060;2023-03-20T09:18:49;26.98;;;20.17;;
55362;SDS011;41244;49.242;9.060;2023-03-20T09:21:15;26.25;;;18.23;;
55362;SDS011;41244;49.242;9.060;2023-03-20T09:23:41;24.65;;;19.48;;
55362;SDS011;41244;49.242;9.060;2023-03-20T09:26:07;23.73;;;18.88;;
55362;SDS011;41244;49.242;9.060;2023-03-20T09:28:32;23.80;;;18.90;;
55362;SDS011;41244;49.242;9.060;2023-03-20T09:30:58;24.50;;;19.17;;
55362;SDS011;41244;49.242;9.060;2023-03-20T09:33:25;21.58;;;18.40;;
55362;SDS011;41244;49.242;9.060;2023-03-20T09:35:51;25.50;;;20.25;;
55362;SDS011;41244;49.242;9.060;2023-03-20T09:38:17;27.85;;;19.42;;
55362;SDS011;41244;49.242;9.060;2023-03-20T09:40:48;23.67;;;18.70;;
55362;SDS011;41244;49.242;9.060;2023-03-20T09:45:51;22.92;;;17.05;;
55362;SDS011;41244;49.242;9.060;2023-03-20T09:51:43;21.52;;;15.73;;
55362;SDS011;41244;49.242;9.060;2023-03-20T09:57:00;18.92;;;14.88;;
55362;SDS011;41244;49.242;9.060;2023-03-20T09:59:27;21.52;;;17.63;;
55362;SDS011;41244;49.242;9.060;2023-03-20T10:01:56;22.52;;;17.30;;
55362;SDS011;41244;49.242;9.060;2023-03-20T10:04:48;22.90;;;15.80;;
55362;SDS011;41244;49.242;9.060;2023-03-20T10:07:18;16.20;;;13.70;;
55362;SDS011;41244;49.242;9.060;2023-03-20T10:09:44;21.45;;;15.50;;
55362;SDS011;41244;49.242;9.060;2023-03-20T10:20:50;22.15;;;16.20;;
55362;SDS011;41244;49.242;9.060;2023-03-20T10:23:39;17.05;;;14.50;;
55362;SDS011;41244;49.242;9.060;2023-03-20T10:26:17;16.98;;;13.43;;
55362;SDS011;41244;49.242;9.060;2023-03-20T10:28:54;21.17;;;13.18;;
55362;SDS011;41244;49.242;9.060;2023-03-20T10:31:29;18.65;;;13.13;;
55362;SDS011;41244;49.242;9.060;2023-03-20T10:39:36;18.95;;;12.70;;
55362;SDS011;41244;49.242;9.060;2023-03-20T10:42:46;23.02;;;12.77;;
55362;SDS011;41244;49.242;9.060;2023-03-20T10:51:03;15.70;;;12.82;;
55362;SDS011;41244;49.242;9.060;2023-03-20T10:56:10;14.02;;;11.40;;
55362;SDS011;41244;49.242;9.060;2023-03-20T10:59:04;13.05;;;9.80;;
55362;SDS011;41244;49.242;9.060;2023-03-20T11:01:54;14.13;;;11.40;;
55362;SDS011;41244;49.242;9.060;2023-03-20T11:04:20;15.70;;;11.68;;
55362;SDS011;41244;49.242;9.060;2023-03-20T11:06:59;15.93;;;12.55;;
55362;SDS011;41244;49.242;9.060;2023-03-20T11:09:42;16.88;;;12.63;;
55362;SDS011;41244;49.242;9.060;2023-03-20T11:12:15;21.33;;;11.38;;
55362;SDS011;41244;49.242;9.060;2023-03-20T11:14:42;12.70;;;10.68;;
55362;SDS011;41244;49.242;9.060;2023-03-20T11:17:08;13.77;;;9.93;;
55362;SDS011;41244;49.242;9.060;2023-03-20T11:19:36;15.07;;;9.35;;
55362;SDS011;41244;49.242;9.060;2023-03-20T11:24:50;10.23;;;8.32;;
55362;SDS011;41244;49.242;9.060;2023-03-20T11:27:23;9.40;;;8.27;;
55362;SDS011;41244;49.242;9.060;2023-03-20T11:29:51;8.63;;;7.13;;
55362;SDS011;41244;49.242;9.060;2023-03-20T11:32:25;11.60;;;7.82;;
55362;SDS011;41244;49.242;9.060;2023-03-20T11:34:53;8.98;;;7.32;;
55362;SDS011;41244;49.242;9.060;2023-03-20T11:37:23;9.43;;;7.63;;
55362;SDS011;41244;49.242;9.060;2023-03-20T11:40:01;10.65;;;7.75;;
55362;SDS011;41244;49.242;9.060;2023-03-20T11:42:56;10.20;;;7.45;;
55362;SDS011;41244;49.242;9.060;2023-03-20T11:45:24;12.55;;;8.27;;
55362;SDS011;41244;49.242;9.060;2023-03-20T11:47:52;14.52;;;7.57;;
55362;SDS011;41244;49.242;9.060;2023-03-20T11:50:41;9.52;;;7.50;;
55362;SDS011;41244;49.242;9.060;2023-03-20T11:53:30;7.85;;;6.57;;
55362;SDS011;41244;49.242;9.060;2023-03-20T11:56:02;18.05;;;7.18;;
55362;SDS011;41244;49.242;9.060;2023-03-20T11:58:28;7.45;;;6.32;;
55362;SDS011;41244;49.242;9.060;2023-03-20T12:00:54;10.65;;;7.22;;
55362;SDS011;41244;49.242;9.060;2023-03-20T12:03:35;12.13;;;8.52;;
55362;SDS011;41244;49.242;9.060;2023-03-20T12:06:07;10.48;;;6.32;;
55362;SDS011;41244;49.242;9.060;2023-03-20T12:09:24;9.13;;;6.75;;
55362;SDS011;41244;49.242;9.060;2023-03-20T12:23:50;8.45;;;6.97;;
55362;SDS011;41244;49.242;9.060;2023-03-20T12:27:10;7.97;;;6.20;;
55362;SDS011;41244;49.242;9.060;2023-03-20T12:30:09;10.55;;;7.15;;
55362;SDS011;41244;49.242;9.060;2023-03-20T12:32:41;5.97;;;5.38;;
55362;SDS011;41244;49.242;9.060;2023-03-20T12:35:30;17.58;;;6.18;;
55362;SDS011;41244;49.242;9.060;2023-03-20T12:38:00;11.57;;;6.15;;
55362;SDS011;41244;49.242;9.060;2023-03-20T12:40:37;6.72;;;5.93;;
55362;SDS011;41244;49.242;9.060;2023-03-20T12:43:17;6.90;;;6.10;;
55362;SDS011;41244;49.242;9.060;2023-03-20T12:46:15;12.55;;;7.03;;
55362;SDS011;41244;49.242;9.060;2023-03-20T12:49:11;11.90;;;5.47;;
55362;SDS011;41244;49.242;9.060;2023-03-20T13:01:49;7.57;;;6.70;;
55362;SDS011;41244;49.242;9.060;2023-03-20T13:07:00;7.45;;;5.30;;
55362;SDS011;41244;49.242;9.060;2023-03-20T13:15:26;8.60;;;5.05;;
55362;SDS011;41244;49.242;9.060;2023-03-20T13:18:32;7.25;;;4.70;;
55362;SDS011;41244;49.242;9.060;2023-03-20T13:21:07;5.90;;;5.30;;
55362;SDS011;41244;49.242;9.060;2023-03-20T13:27:40;7.43;;;4.57;;
55362;SDS011;41244;49.242;9.060;2023-03-20T13:30:14;6.25;;;4.50;;
55362;SDS011;41244;49.242;9.060;2023-03-20T13:32:54;7.88;;;4.80;;
55362;SDS011;41244;49.242;9.060;2023-03-20T13:38:34;5.70;;;4.07;;
55362;SDS011;41244;49.242;9.060;2023-03-20T13:41:03;8.32;;;3.85;;
55362;SDS011;41244;49.242;9.060;2023-03-20T13:48:42;7.53;;;6.25;;
55362;SDS011;41244;49.242;9.060;2023-03-20T13:51:29;14.55;;;4.82;;
55362;SDS011;41244;49.242;9.060;2023-03-20T13:57:10;8.55;;;5.07;;
55362;SDS011;41244;49.242;9.060;2023-03-20T14:05:59;8.05;;;5.50;;
55362;SDS011;41244;49.242;9.060;2023-03-20T14:11:05;6.45;;;5.75;;
55362;SDS011;41244;49.242;9.060;2023-03-20T14:13:54;5.95;;;5.35;;
55362;SDS011;41244;49.242;9.060;2023-03-20T14:16:42;8.13;;;6.38;;
55362;SDS011;41244;49.242;9.060;2023-03-20T14:19:21;7.28;;;6.00;;
55362;SDS011;41244;49.242;9.060;2023-03-20T14:21:51;7.25;;;5.72;;
55362;SDS011;41244;49.242;9.060;2023-03-20T14:24:18;7.57;;;5.47;;
55362;SDS011;41244;49.242;9.060;2023-03-20T14:26:50;7.68;;;5.47;;
55362;SDS011;41244;49.242;9.060;2023-03-20T14:32:01;8.65;;;6.25;;
55362;SDS011;41244;49.242;9.060;2023-03-20T14:34:57;8.98;;;5.93;;
55362;SDS011;41244;49.242;9.060;2023-03-20T14:43:35;7.50;;;5.03;;
55362;SDS011;41244;49.242;9.060;2023-03-20T14:48:55;13.95;;;5.93;;
55362;SDS011;41244;49.242;9.060;2023-03-20T14:56:46;7.78;;;4.53;;
55362;SDS011;41244;49.242;9.060;2023-03-20T14:59:13;8.57;;;4.90;;
55362;SDS011;41244;49.242;9.060;2023-03-20T15:04:29;8.77;;;5.30;;
55362;SDS011;41244;49.242;9.060;2023-03-20T15:09:46;12.52;;;5.18;;
55362;SDS011;41244;49.242;9.060;2023-03-20T15:12:16;10.18;;;4.30;;
55362;SDS011;41244;49.242;9.060;2023-03-20T15:14:49;10.52;;;4.78;;
55362;SDS011;41244;49.242;9.060;2023-03-20T15:17:36;18.42;;;5.03;;
55362;SDS011;41244;49.242;9.060;2023-03-20T15:20:18;8.63;;;5.63;;
55362;SDS011;41244;49.242;9.060;2023-03-20T15:22:54;7.90;;;5.35;;
55362;SDS011;41244;49.242;9.060;2023-03-20T15:25:23;16.33;;;7.63;;
55362;SDS011;41244;49.242;9.060;2023-03-20T15:28:17;21.80;;;5.97;;
55362;SDS011;41244;49.242;9.060;2023-03-20T15:30:45;9.68;;;4.70;;
55362;SDS011;41244;49.242;9.060;2023-03-20T15:33:15;15.13;;;5.40;;
55362;SDS011;41244;49.242;9.060;2023-03-20T15:35:44;5.82;;;4.70;;
55362;SDS011;41244;49.242;9.060;2023-03-20T15:38:11;8.57;;;5.90;;
55362;SDS011;41244;49.242;9.060;2023-03-20T15:40:39;16.73;;;6.95;;
55362;SDS011;41244;49.242;9.060;2023-03-20T15:43:13;7.63;;;5.43;;
55362;SDS011;41244;49.242;9.060;2023-03-20T15:45:45;7.38;;;5.43;;
55362;SDS011;41244;49.242;9.060;2023-03-20T15:48:15;11.30;;;5.35;;
55362;SDS011;41244;49.242;9.060;2023-03-20T15:50:45;24.58;;;6.22;;
55362;SDS011;41244;49.242;9.060;2023-03-20T15:53:33;10.57;;;5.13;;
55362;SDS011;41244;49.242;9.060;2023-03-20T15:56:06;12.77;;;4.40;;
55362;SDS011;41244;49.242;9.060;2023-03-20T15:58:35;6.03;;;4.72;;
55362;SDS011;41244;49.242;9.060;2023-03-20T16:01:02;12.35;;;4.18;;
55362;SDS011;41244;49.242;9.060;2023-03-20T16:03:28;10.80;;;3.95;;
55362;SDS011;41244;49.242;9.060;2023-03-20T16:05:57;20.45;;;5.00;;
55362;SDS011;41244;49.242;9.060;2023-03-20T16:08:25;15.75;;;4.93;;
55362;SDS011;41244;49.242;9.060;2023-03-20T16:10:57;11.60;;;4.25;;
55362;SDS011;41244;49.242;9.060;2023-03-20T16:13:32;9.73;;;4.57;;
55362;SDS011;41244;49.242;9.060;2023-03-20T16:16:03;10.23;;;4.20;;
55362;SDS011;41244;49.242;9.060;2023-03-20T16:18:32;11.52;;;4.45;;
55362;SDS011;41244;49.242;9.060;2023-03-20T16:21:06;5.80;;;4.53;;
55362;SDS011;41244;49.242;9.060;2023-03-20T16:23:55;8.20;;;4.40;;
55362;SDS011;41244;49.242;9.060;2023-03-20T16:26:23;7.03;;;5.13;;
55362;SDS011;41244;49.242;9.060;2023-03-20T16:28:52;6.25;;;4.50;;
55362;SDS011;41244;49.242;9.060;2023-03-20T16:31:23;16.30;;;5.18;;
55362;SDS011;41244;49.242;9.060;2023-03-20T16:33:56;8.90;;;4.32;;
55362;SDS011;41244;49.242;9.060;2023-03-20T16:36:28;11.48;;;4.80;;
55362;SDS011;41244;49.242;9.060;2023-03-20T16:41:41;18.20;;;5.78;;
55362;SDS011;41244;49.242;9.060;2023-03-20T16:44:15;9.85;;;4.40;;
55362;SDS011;41244;49.242;9.060;2023-03-20T16:47:03;10.77;;;4.82;;
55362;SDS011;41244;49.242;9.060;2023-03-20T16:52:26;12.50;;;4.70;;
55362;SDS011;41244;49.242;9.060;2023-03-20T16:54:56;8.68;;;4.47;;
55362;SDS011;41244;49.242;9.060;2023-03-20T16:57:24;15.65;;;4.55;;
55362;SDS011;41244;49.242;9.060;2023-03-20T16:59:51;16.35;;;4.25;;
55362;SDS011;41244;49.242;9.060;2023-03-20T17:04:53;14.25;;;6.25;;
55362;SDS011;41244;49.242;9.060;2023-03-20T17:07:20;7.50;;;5.00;;
55362;SDS011;41244;49.242;9.060;2023-03-20T17:10:33;9.50;;;5.10;;
55362;SDS011;41244;49.242;9.060;2023-03-20T17:12:40;15.95;;;5.50;;
55362;SDS011;41244;49.242;9.060;2023-03-20T17:15:09;8.73;;;4.28;;
55362;SDS011;41244;49.242;9.060;2023-03-20T17:20:11;6.30;;;4.45;;
55362;SDS011;41244;49.242;9.060;2023-03-20T17:22:43;11.40;;;4.30;;
55362;SDS011;41244;49.242;9.060;2023-03-20T17:25:09;5.78;;;3.40;;
55362;SDS011;41244;49.242;9.060;2023-03-20T17:27:35;9.63;;;5.05;;
55362;SDS011;41244;49.242;9.060;2023-03-20T17:30:04;9.85;;;5.90;;
55362;SDS011;41244;49.242;9.060;2023-03-20T17:32:31;14.68;;;5.13;;
55362;SDS011;41244;49.242;9.060;2023-03-20T17:34:57;10.07;;;5.88;;
55362;SDS011;41244;49.242;9.060;2023-03-20T17:37:24;14.55;;;7.43;;
55362;SDS011;41244;49.242;9.060;2023-03-20T17:39:52;12.93;;;8.00;;